sensor_id;sensor_type;location;lat;lon;timestamp;temperature;humidity
74869;DHT22;63419;42.262;12.210;2022-12-04T00:01:19;8.70;99.90
74869;DHT22;63419;42.262;12.210;2022-12-04T00:03:56;8.70;99.90
74869;DHT22;63419;42.262;12.210;2022-12-04T00:06:26;8.70;99.90
74869;DHT22;63419;42.262;12.210;2022-12-04T00:08:54;8.80;99.90
74869;DHT22;63419;42.262;12.210;2022-12-04T00:11:26;8.80;99.90
74869;DHT22;63419;42.262;12.210;2022-12-04T00:13:57;8.70;99.90
74869;DHT22;63419;42.262;12.210;2022-12-04T00:16:32;8.80;99.90
74869;DHT22;63419;42.262;12.210;2022-12-04T00:18:59;8.70;99.90
74869;DHT22;63419;42.262;12.210;2022-12-04T00:21:27;8.70;99.90
74869;DHT22;63419;42.262;12.210;2022-12-04T00:23:54;8.80;99.90
74869;DHT22;63419;42.262;12.210;2022-12-04T00:26:23;8.70;99.90
74869;DHT22;63419;42.262;12.210;2022-12-04T00:28:53;8.70;99.90
74869;DHT22;63419;42.262;12.210;2022-12-04T00:31:23;8.70;99.90
74869;DHT22;63419;42.262;12.210;2022-12-04T00:33:52;8.70;99.90
74869;DHT22;63419;42.262;12.210;2022-12-04T00:36:20;8.70;99.90
74869;DHT22;63419;42.262;12.210;2022-12-04T00:38:49;8.70;99.90
74869;DHT22;63419;42.262;12.210;2022-12-04T00:41:19;8.70;99.90
74869;DHT22;63419;42.262;12.210;2022-12-04T00:43:50;8.70;99.90
74869;DHT22;63419;42.262;12.210;2022-12-04T00:46:19;8.80;99.90
74869;DHT22;63419;42.262;12.210;2022-12-04T00:48:47;8.80;99.90
74869;DHT22;63419;42.262;12.210;2022-12-04T00:51:19;8.80;99.90
74869;DHT22;63419;42.262;12.210;2022-12-04T00:53:49;8.80;99.90
74869;DHT22;63419;42.262;12.210;2022-12-04T00:56:23;8.70;99.90
74869;DHT22;63419;42.262;12.210;2022-12-04T00:58:53;8.70;99.90
74869;DHT22;63419;42.262;12.210;2022-12-04T01:01:23;8.70;99.90
74869;DHT22;63419;42.262;12.210;2022-12-04T01:03:52;8.80;99.90
74869;DHT22;63419;42.262;12.210;2022-12-04T01:06:29;8.70;99.90
74869;DHT22;63419;42.262;12.210;2022-12-04T01:08:58;8.80;99.90
74869;DHT22;63419;42.262;12.210;2022-12-04T01:11:29;8.70;99.90
74869;DHT22;63419;42.262;12.210;2022-12-04T01:13:57;8.70;99.90
74869;DHT22;63419;42.262;12.210;2022-12-04T01:16:29;8.70;99.90
74869;DHT22;63419;42.262;12.210;2022-12-04T01:19:00;8.70;99.90
74869;DHT22;63419;42.262;12.210;2022-12-04T01:21:31;8.70;99.90
74869;DHT22;63419;42.262;12.210;2022-12-04T01:24:00;8.60;99.90
74869;DHT22;63419;42.262;12.210;2022-12-04T01:26:27;8.60;99.90
74869;DHT22;63419;42.262;12.210;2022-12-04T01:28:54;8.70;99.90
74869;DHT22;63419;42.262;12.210;2022-12-04T01:31:22;8.60;99.90
74869;DHT22;63419;42.262;12.210;2022-12-04T01:33:51;8.60;99.90
74869;DHT22;63419;42.262;12.210;2022-12-04T01:36:24;8.50;99.90
74869;DHT22;63419;42.262;12.210;2022-12-04T01:38:53;8.50;99.90
74869;DHT22;63419;42.262;12.210;2022-12-04T01:41:24;8.50;99.90
74869;DHT22;63419;42.262;12.210;2022-12-04T01:44:20;8.40;99.90
74869;DHT22;63419;42.262;12.210;2022-12-04T01:46:59;8.40;99.90
74869;DHT22;63419;42.262;12.210;2022-12-04T01:49:31;8.40;99.90
74869;DHT22;63419;42.262;12.210;2022-12-04T01:52:17;8.40;99.90
74869;DHT22;63419;42.262;12.210;2022-12-04T01:54:54;8.40;99.90
74869;DHT22;63419;42.262;12.210;2022-12-04T01:57:30;8.50;99.90
74869;DHT22;63419;42.262;12.210;2022-12-04T02:00:07;8.50;99.90
74869;DHT22;63419;42.262;12.210;2022-12-04T02:02:41;8.50;99.90
74869;DHT22;63419;42.262;12.210;2022-12-04T02:05:14;8.60;99.90
74869;DHT22;63419;42.262;12.210;2022-12-04T02:07:45;8.60;99.90
74869;DHT22;63419;42.262;12.210;2022-12-04T02:10:14;8.60;99.90
74869;DHT22;63419;42.262;12.210;2022-12-04T02:15:58;8.60;99.90
74869;DHT22;63419;42.262;12.210;2022-12-04T02:19:03;8.70;99.90
74869;DHT22;63419;42.262;12.210;2022-12-04T02:21:47;8.70;99.90
74869;DHT22;63419;42.262;12.210;2022-12-04T02:24:31;8.70;99.90
74869;DHT22;63419;42.262;12.210;2022-12-04T02:28:01;8.60;99.90
74869;DHT22;63419;42.262;12.210;2022-12-04T02:30:30;8.70;99.90
74869;DHT22;63419;42.262;12.210;2022-12-04T02:33:15;8.70;99.90
74869;DHT22;63419;42.262;12.210;2022-12-04T02:35:54;8.70;99.90
74869;DHT22;63419;42.262;12.210;2022-12-04T02:38:36;8.80;99.90
74869;DHT22;63419;42.262;12.210;2022-12-04T02:41:20;8.80;99.90
74869;DHT22;63419;42.262;12.210;2022-12-04T02:44:20;8.80;99.90
74869;DHT22;63419;42.262;12.210;2022-12-04T02:47:06;8.80;99.90
74869;DHT22;63419;42.262;12.210;2022-12-04T02:49:45;8.90;99.90
74869;DHT22;63419;42.262;12.210;2022-12-04T02:52:23;8.90;99.90
74869;DHT22;63419;42.262;12.210;2022-12-04T02:55:03;8.90;99.90
74869;DHT22;63419;42.262;12.210;2022-12-04T02:57:39;8.90;99.90
74869;DHT22;63419;42.262;12.210;2022-12-04T03:00:12;8.90;99.90
74869;DHT22;63419;42.262;12.210;2022-12-04T03:02:49;9.00;99.90
74869;DHT22;63419;42.262;12.210;2022-12-04T03:05:23;9.00;99.90
74869;DHT22;63419;42.262;12.210;2022-12-04T03:08:07;9.00;99.90
74869;DHT22;63419;42.262;12.210;2022-12-04T03:10:45;9.00;99.90
74869;DHT22;63419;42.262;12.210;2022-12-04T03:13:38;9.00;99.90
74869;DHT22;63419;42.262;12.210;2022-12-04T03:16:07;9.00;99.90
74869;DHT22;63419;42.262;12.210;2022-12-04T03:18:44;9.10;99.90
74869;DHT22;63419;42.262;12.210;2022-12-04T03:21:19;9.10;99.90
74869;DHT22;63419;42.262;12.210;2022-12-04T03:23:56;9.10;99.90
74869;DHT22;63419;42.262;12.210;2022-12-04T03:26:51;9.20;99.90
74869;DHT22;63419;42.262;12.210;2022-12-04T03:32:35;9.30;99.90
74869;DHT22;63419;42.262;12.210;2022-12-04T03:35:28;9.30;99.90
74869;DHT22;63419;42.262;12.210;2022-12-04T03:41:16;9.30;99.90
74869;DHT22;63419;42.262;12.210;2022-12-04T03:46:37;9.20;99.90
74869;DHT22;63419;42.262;12.210;2022-12-04T03:49:37;9.30;99.90
74869;DHT22;63419;42.262;12.210;2022-12-04T03:52:27;9.30;99.90
74869;DHT22;63419;42.262;12.210;2022-12-04T03:55:23;9.30;99.90
74869;DHT22;63419;42.262;12.210;2022-12-04T03:57:57;9.30;99.90
74869;DHT22;63419;42.262;12.210;2022-12-04T04:00:42;9.40;99.90
74869;DHT22;63419;42.262;12.210;2022-12-04T04:03:27;9.30;99.90
74869;DHT22;63419;42.262;12.210;2022-12-04T04:06:13;9.30;99.90
74869;DHT22;63419;42.262;12.210;2022-12-04T04:08:48;9.30;99.90
74869;DHT22;63419;42.262;12.210;2022-12-04T04:12:28;9.20;99.90
74869;DHT22;63419;42.262;12.210;2022-12-04T04:14:49;9.30;99.90
74869;DHT22;63419;42.262;12.210;2022-12-04T04:17:42;9.30;99.90
74869;DHT22;63419;42.262;12.210;2022-12-04T04:20:45;9.20;99.90
74869;DHT22;63419;42.262;12.210;2022-12-04T04:23:45;9.20;99.90
74869;DHT22;63419;42.262;12.210;2022-12-04T04:26:37;9.30;99.90
74869;DHT22;63419;42.262;12.210;2022-12-04T04:29:09;9.20;99.90
74869;DHT22;63419;42.262;12.210;2022-12-04T04:34:35;9.30;99.90
74869;DHT22;63419;42.262;12.210;2022-12-04T04:37:17;9.30;99.90
74869;DHT22;63419;42.262;12.210;2022-12-04T04:45:33;9.40;99.90
74869;DHT22;63419;42.262;12.210;2022-12-04T04:48:13;9.40;99.90
74869;DHT22;63419;42.262;12.210;2022-12-04T04:50:43;9.30;99.90
74869;DHT22;63419;42.262;12.210;2022-12-04T04:53:16;9.40;99.90
74869;DHT22;63419;42.262;12.210;2022-12-04T04:55:47;9.30;99.90
74869;DHT22;63419;42.262;12.210;2022-12-04T04:58:18;9.30;99.90
74869;DHT22;63419;42.262;12.210;2022-12-04T05:01:11;9.40;99.90
74869;DHT22;63419;42.262;12.210;2022-12-04T05:03:41;9.40;99.90
74869;DHT22;63419;42.262;12.210;2022-12-04T05:06:09;9.40;99.90
74869;DHT22;63419;42.262;12.210;2022-12-04T05:08:37;9.40;99.90
74869;DHT22;63419;42.262;12.210;2022-12-04T05:11:04;9.40;99.90
74869;DHT22;63419;42.262;12.210;2022-12-04T05:13:50;9.40;99.90
74869;DHT22;63419;42.262;12.210;2022-12-04T05:16:18;9.40;99.90
74869;DHT22;63419;42.262;12.210;2022-12-04T05:18:46;9.40;99.90
74869;DHT22;63419;42.262;12.210;2022-12-04T05:21:32;9.40;99.90
74869;DHT22;63419;42.262;12.210;2022-12-04T05:24:00;9.40;99.90
74869;DHT22;63419;42.262;12.210;2022-12-04T05:26:29;9.50;99.90
74869;DHT22;63419;42.262;12.210;2022-12-04T05:28:57;9.60;99.90
74869;DHT22;63419;42.262;12.210;2022-12-04T05:31:24;9.60;99.90
74869;DHT22;63419;42.262;12.210;2022-12-04T05:33:52;9.60;99.90
74869;DHT22;63419;42.262;12.210;2022-12-04T05:36:19;9.60;99.90
74869;DHT22;63419;42.262;12.210;2022-12-04T05:38:47;9.70;99.90
74869;DHT22;63419;42.262;12.210;2022-12-04T05:41:14;9.80;99.90
74869;DHT22;63419;42.262;12.210;2022-12-04T05:43:41;9.80;99.90
74869;DHT22;63419;42.262;12.210;2022-12-04T05:46:09;9.80;99.90
74869;DHT22;63419;42.262;12.210;2022-12-04T05:48:36;9.90;99.90
74869;DHT22;63419;42.262;12.210;2022-12-04T05:51:06;9.90;99.90
74869;DHT22;63419;42.262;12.210;2022-12-04T05:53:35;9.80;99.90
74869;DHT22;63419;42.262;12.210;2022-12-04T05:56:05;9.80;99.90
74869;DHT22;63419;42.262;12.210;2022-12-04T05:58:34;9.80;99.90
74869;DHT22;63419;42.262;12.210;2022-12-04T06:01:13;9.80;99.90
74869;DHT22;63419;42.262;12.210;2022-12-04T06:03:42;9.80;99.90
74869;DHT22;63419;42.262;12.210;2022-12-04T06:06:15;9.80;99.90
74869;DHT22;63419;42.262;12.210;2022-12-04T06:08:51;9.80;99.90
74869;DHT22;63419;42.262;12.210;2022-12-04T06:11:25;9.80;99.90
74869;DHT22;63419;42.262;12.210;2022-12-04T06:13:54;9.80;99.90
74869;DHT22;63419;42.262;12.210;2022-12-04T06:16:26;9.80;99.90
74869;DHT22;63419;42.262;12.210;2022-12-04T06:18:59;9.70;99.90
74869;DHT22;63419;42.262;12.210;2022-12-04T06:21:31;9.60;99.90
74869;DHT22;63419;42.262;12.210;2022-12-04T06:24:01;9.70;99.90
74869;DHT22;63419;42.262;12.210;2022-12-04T06:26:30;9.70;99.90
74869;DHT22;63419;42.262;12.210;2022-12-04T06:28:58;9.70;99.90
74869;DHT22;63419;42.262;12.210;2022-12-04T06:31:27;9.70;99.90
74869;DHT22;63419;42.262;12.210;2022-12-04T06:33:57;9.70;99.90
74869;DHT22;63419;42.262;12.210;2022-12-04T06:36:27;9.80;99.90
74869;DHT22;63419;42.262;12.210;2022-12-04T06:38:56;9.90;99.90
74869;DHT22;63419;42.262;12.210;2022-12-04T06:41:25;9.90;99.90
74869;DHT22;63419;42.262;12.210;2022-12-04T06:43:54;9.80;99.90
74869;DHT22;63419;42.262;12.210;2022-12-04T06:46:24;9.80;99.90
74869;DHT22;63419;42.262;12.210;2022-12-04T06:48:55;9.80;99.90
74869;DHT22;63419;42.262;12.210;2022-12-04T06:51:34;9.70;99.90
74869;DHT22;63419;42.262;12.210;2022-12-04T06:54:08;9.70;99.90
74869;DHT22;63419;42.262;12.210;2022-12-04T06:56:37;9.80;99.90
74869;DHT22;63419;42.262;12.210;2022-12-04T06:59:05;9.80;99.90
74869;DHT22;63419;42.262;12.210;2022-12-04T07:01:34;9.70;99.90
74869;DHT22;63419;42.262;12.210;2022-12-04T07:04:03;9.70;99.90
74869;DHT22;63419;42.262;12.210;2022-12-04T07:06:40;9.70;99.90
74869;DHT22;63419;42.262;12.210;2022-12-04T07:09:19;9.60;99.90
74869;DHT22;63419;42.262;12.210;2022-12-04T07:11:53;9.60;99.90
74869;DHT22;63419;42.262;12.210;2022-12-04T07:14:24;9.60;99.90
74869;DHT22;63419;42.262;12.210;2022-12-04T07:16:54;9.50;99.90
74869;DHT22;63419;42.262;12.210;2022-12-04T07:19:25;9.50;99.90
74869;DHT22;63419;42.262;12.210;2022-12-04T07:21:52;9.50;99.90
74869;DHT22;63419;42.262;12.210;2022-12-04T07:24:19;9.50;99.90
74869;DHT22;63419;42.262;12.210;2022-12-04T07:26:47;9.60;99.90
74869;DHT22;63419;42.262;12.210;2022-12-04T07:29:16;9.60;99.90
74869;DHT22;63419;42.262;12.210;2022-12-04T07:31:43;9.70;99.90
74869;DHT22;63419;42.262;12.210;2022-12-04T07:34:14;9.70;99.90
74869;DHT22;63419;42.262;12.210;2022-12-04T07:36:41;9.70;99.90
74869;DHT22;63419;42.262;12.210;2022-12-04T07:39:08;9.70;99.90
74869;DHT22;63419;42.262;12.210;2022-12-04T07:41:37;9.70;99.90
74869;DHT22;63419;42.262;12.210;2022-12-04T07:44:06;9.70;99.90
74869;DHT22;63419;42.262;12.210;2022-12-04T07:46:35;9.70;99.90
74869;DHT22;63419;42.262;12.210;2022-12-04T07:49:12;9.70;99.90
74869;DHT22;63419;42.262;12.210;2022-12-04T07:51:40;9.70;99.90
74869;DHT22;63419;42.262;12.210;2022-12-04T07:54:07;9.70;99.90
74869;DHT22;63419;42.262;12.210;2022-12-04T07:56:39;9.60;99.90
74869;DHT22;63419;42.262;12.210;2022-12-04T07:59:34;9.60;99.90
74869;DHT22;63419;42.262;12.210;2022-12-04T08:02:04;9.60;99.90
74869;DHT22;63419;42.262;12.210;2022-12-04T08:04:33;9.60;99.90
74869;DHT22;63419;42.262;12.210;2022-12-04T08:07:03;9.60;99.90
74869;DHT22;63419;42.262;12.210;2022-12-04T08:09:44;9.60;99.90
74869;DHT22;63419;42.262;12.210;2022-12-04T08:12:38;9.70;99.90
74869;DHT22;63419;42.262;12.210;2022-12-04T08:15:06;9.80;99.90
74869;DHT22;63419;42.262;12.210;2022-12-04T08:17:34;9.80;99.90
74869;DHT22;63419;42.262;12.210;2022-12-04T08:20:03;9.80;99.90
74869;DHT22;63419;42.262;12.210;2022-12-04T08:22:31;9.90;99.90
74869;DHT22;63419;42.262;12.210;2022-12-04T08:24:58;10.00;99.90
74869;DHT22;63419;42.262;12.210;2022-12-04T08:27:27;10.10;99.90
74869;DHT22;63419;42.262;12.210;2022-12-04T08:29:56;10.00;99.90
74869;DHT22;63419;42.262;12.210;2022-12-04T08:32:28;10.00;99.90
74869;DHT22;63419;42.262;12.210;2022-12-04T08:34:55;10.20;99.90
74869;DHT22;63419;42.262;12.210;2022-12-04T08:37:24;10.30;99.90
74869;DHT22;63419;42.262;12.210;2022-12-04T08:39:55;10.40;99.90
74869;DHT22;63419;42.262;12.210;2022-12-04T08:42:34;10.40;99.90
74869;DHT22;63419;42.262;12.210;2022-12-04T08:45:09;10.60;99.90
74869;DHT22;63419;42.262;12.210;2022-12-04T08:47:39;10.60;99.90
74869;DHT22;63419;42.262;12.210;2022-12-04T08:50:11;10.80;99.90
74869;DHT22;63419;42.262;12.210;2022-12-04T08:52:40;11.00;99.90
74869;DHT22;63419;42.262;12.210;2022-12-04T08:55:09;11.10;99.90
74869;DHT22;63419;42.262;12.210;2022-12-04T08:57:42;11.30;99.90
74869;DHT22;63419;42.262;12.210;2022-12-04T09:00:12;11.10;99.90
74869;DHT22;63419;42.262;12.210;2022-12-04T09:02:43;11.30;99.90
74869;DHT22;63419;42.262;12.210;2022-12-04T09:05:10;11.50;99.90
74869;DHT22;63419;42.262;12.210;2022-12-04T09:07:38;11.70;99.90
74869;DHT22;63419;42.262;12.210;2022-12-04T09:10:05;11.60;99.90
74869;DHT22;63419;42.262;12.210;2022-12-04T09:12:33;11.50;99.90
74869;DHT22;63419;42.262;12.210;2022-12-04T09:15:00;11.60;99.90
74869;DHT22;63419;42.262;12.210;2022-12-04T09:17:28;11.60;99.90
74869;DHT22;63419;42.262;12.210;2022-12-04T09:19:55;11.50;99.90
74869;DHT22;63419;42.262;12.210;2022-12-04T09:22:26;11.50;99.90
74869;DHT22;63419;42.262;12.210;2022-12-04T09:25:11;11.90;99.90
74869;DHT22;63419;42.262;12.210;2022-12-04T09:27:39;11.80;99.90
74869;DHT22;63419;42.262;12.210;2022-12-04T09:30:10;11.80;99.90
74869;DHT22;63419;42.262;12.210;2022-12-04T09:32:39;12.10;99.90
74869;DHT22;63419;42.262;12.210;2022-12-04T09:35:07;12.50;99.90
74869;DHT22;63419;42.262;12.210;2022-12-04T09:37:38;12.60;99.90
74869;DHT22;63419;42.262;12.210;2022-12-04T09:40:07;12.60;99.90
74869;DHT22;63419;42.262;12.210;2022-12-04T09:42:45;12.10;99.90
74869;DHT22;63419;42.262;12.210;2022-12-04T09:46:11;11.70;99.90
74869;DHT22;63419;42.262;12.210;2022-12-04T09:48:39;11.60;99.90
74869;DHT22;63419;42.262;12.210;2022-12-04T09:51:15;11.70;99.90
74869;DHT22;63419;42.262;12.210;2022-12-04T09:53:54;11.80;99.90
74869;DHT22;63419;42.262;12.210;2022-12-04T09:56:29;11.70;99.90
74869;DHT22;63419;42.262;12.210;2022-12-04T10:05:31;11.30;99.90
74869;DHT22;63419;42.262;12.210;2022-12-04T10:08:20;11.40;99.90
74869;DHT22;63419;42.262;12.210;2022-12-04T10:17:02;11.50;99.90
74869;DHT22;63419;42.262;12.210;2022-12-04T10:22:55;11.80;99.90
74869;DHT22;63419;42.262;12.210;2022-12-04T10:25:40;12.00;99.90
74869;DHT22;63419;42.262;12.210;2022-12-04T10:31:12;12.20;99.90
74869;DHT22;63419;42.262;12.210;2022-12-04T10:34:00;12.20;99.90
74869;DHT22;63419;42.262;12.210;2022-12-04T10:36:35;12.30;99.90
74869;DHT22;63419;42.262;12.210;2022-12-04T10:39:17;12.00;99.90
74869;DHT22;63419;42.262;12.210;2022-12-04T10:44:33;12.10;99.90
74869;DHT22;63419;42.262;12.210;2022-12-04T10:47:03;12.10;99.90
74869;DHT22;63419;42.262;12.210;2022-12-04T10:49:34;12.10;99.90
74869;DHT22;63419;42.262;12.210;2022-12-04T10:52:10;11.80;99.90
74869;DHT22;63419;42.262;12.210;2022-12-04T10:54:48;11.90;99.90
74869;DHT22;63419;42.262;12.210;2022-12-04T10:57:42;11.80;99.90
74869;DHT22;63419;42.262;12.210;2022-12-04T11:00:33;11.90;99.90
74869;DHT22;63419;42.262;12.210;2022-12-04T11:03:08;12.20;99.90
74869;DHT22;63419;42.262;12.210;2022-12-04T11:06:05;12.10;99.90
74869;DHT22;63419;42.262;12.210;2022-12-04T11:08:48;12.10;99.90
74869;DHT22;63419;42.262;12.210;2022-12-04T11:11:25;12.20;99.90
74869;DHT22;63419;42.262;12.210;2022-12-04T11:14:13;12.00;99.90
74869;DHT22;63419;42.262;12.210;2022-12-04T11:16:43;12.00;99.90
74869;DHT22;63419;42.262;12.210;2022-12-04T11:19:29;11.90;99.90
74869;DHT22;63419;42.262;12.210;2022-12-04T11:22:04;11.80;99.90
74869;DHT22;63419;42.262;12.210;2022-12-04T11:24:39;12.00;99.90
74869;DHT22;63419;42.262;12.210;2022-12-04T11:30:13;12.00;99.90
74869;DHT22;63419;42.262;12.210;2022-12-04T11:33:02;11.80;99.90
74869;DHT22;63419;42.262;12.210;2022-12-04T11:35:34;11.70;99.90
74869;DHT22;63419;42.262;12.210;2022-12-04T11:38:30;11.80;99.90
74869;DHT22;63419;42.262;12.210;2022-12-04T11:41:02;12.40;99.90
74869;DHT22;63419;42.262;12.210;2022-12-04T11:43:36;12.50;99.90
74869;DHT22;63419;42.262;12.210;2022-12-04T11:46:23;12.20;99.90
74869;DHT22;63419;42.262;12.210;2022-12-04T11:48:52;12.10;99.90
74869;DHT22;63419;42.262;12.210;2022-12-04T11:51:33;12.10;99.90
74869;DHT22;63419;42.262;12.210;2022-12-04T11:54:29;12.30;99.90
74869;DHT22;63419;42.262;12.210;2022-12-04T11:57:29;12.50;99.90
74869;DHT22;63419;42.262;12.210;2022-12-04T12:00:11;12.60;99.90
74869;DHT22;63419;42.262;12.210;2022-12-04T12:06:33;12.40;99.90
74869;DHT22;63419;42.262;12.210;2022-12-04T12:09:25;12.20;99.90
74869;DHT22;63419;42.262;12.210;2022-12-04T12:19:15;12.30;99.90
74869;DHT22;63419;42.262;12.210;2022-12-04T12:22:22;12.20;99.90
74869;DHT22;63419;42.262;12.210;2022-12-04T12:25:30;12.30;99.90
74869;DHT22;63419;42.262;12.210;2022-12-04T12:33:55;12.40;99.90
74869;DHT22;63419;42.262;12.210;2022-12-04T12:36:31;12.40;99.90
74869;DHT22;63419;42.262;12.210;2022-12-04T12:39:34;13.00;99.90
74869;DHT22;63419;42.262;12.210;2022-12-04T12:42:17;14.70;99.90
74869;DHT22;63419;42.262;12.210;2022-12-04T12:48:22;14.70;99.90
74869;DHT22;63419;42.262;12.210;2022-12-04T12:51:11;14.10;99.90
74869;DHT22;63419;42.262;12.210;2022-12-04T12:57:03;13.70;99.90
74869;DHT22;63419;42.262;12.210;2022-12-04T12:59:50;13.20;99.90
74869;DHT22;63419;42.262;12.210;2022-12-04T13:05:34;12.40;99.90
74869;DHT22;63419;42.262;12.210;2022-12-04T13:08:16;12.40;99.90
74869;DHT22;63419;42.262;12.210;2022-12-04T13:13:57;12.10;99.90
74869;DHT22;63419;42.262;12.210;2022-12-04T13:19:40;12.30;99.90
74869;DHT22;63419;42.262;12.210;2022-12-04T13:32:48;12.80;99.90
74869;DHT22;63419;42.262;12.210;2022-12-04T13:41:22;12.70;99.90
74869;DHT22;63419;42.262;12.210;2022-12-04T13:46:41;12.50;99.90
74869;DHT22;63419;42.262;12.210;2022-12-04T13:49:43;12.60;99.90
74869;DHT22;63419;42.262;12.210;2022-12-04T13:52:40;12.60;99.90
74869;DHT22;63419;42.262;12.210;2022-12-04T13:55:31;13.00;99.90
74869;DHT22;63419;42.262;12.210;2022-12-04T14:00:38;13.40;99.90
74869;DHT22;63419;42.262;12.210;2022-12-04T14:03:50;13.30;99.90
74869;DHT22;63419;42.262;12.210;2022-12-04T14:06:38;13.20;99.90
74869;DHT22;63419;42.262;12.210;2022-12-04T14:09:28;12.80;99.90
74869;DHT22;63419;42.262;12.210;2022-12-04T14:12:13;12.80;99.90
74869;DHT22;63419;42.262;12.210;2022-12-04T14:15:21;13.00;99.90
74869;DHT22;63419;42.262;12.210;2022-12-04T14:18:19;12.80;99.90
74869;DHT22;63419;42.262;12.210;2022-12-04T14:20:59;12.60;99.90
74869;DHT22;63419;42.262;12.210;2022-12-04T14:23:40;12.50;99.90
74869;DHT22;63419;42.262;12.210;2022-12-04T14:26:24;12.60;99.90
74869;DHT22;63419;42.262;12.210;2022-12-04T14:29:47;12.60;99.90
74869;DHT22;63419;42.262;12.210;2022-12-04T14:32:22;12.60;99.90
74869;DHT22;63419;42.262;12.210;2022-12-04T14:34:55;12.50;99.90
74869;DHT22;63419;42.262;12.210;2022-12-04T14:37:35;12.80;99.90
74869;DHT22;63419;42.262;12.210;2022-12-04T14:40:18;12.70;99.90
74869;DHT22;63419;42.262;12.210;2022-12-04T14:42:49;12.70;99.90
74869;DHT22;63419;42.262;12.210;2022-12-04T14:45:56;12.90;99.90
74869;DHT22;63419;42.262;12.210;2022-12-04T14:51:17;12.80;99.90
74869;DHT22;63419;42.262;12.210;2022-12-04T14:54:17;12.70;99.90
74869;DHT22;63419;42.262;12.210;2022-12-04T14:59:47;12.50;99.90
74869;DHT22;63419;42.262;12.210;2022-12-04T15:02:39;12.50;99.90
74869;DHT22;63419;42.262;12.210;2022-12-04T15:05:11;12.50;99.90
74869;DHT22;63419;42.262;12.210;2022-12-04T15:07:49;12.30;99.90
74869;DHT22;63419;42.262;12.210;2022-12-04T15:10:23;12.30;99.90
74869;DHT22;63419;42.262;12.210;2022-12-04T15:13:11;12.10;99.90
74869;DHT22;63419;42.262;12.210;2022-12-04T15:15:45;12.00;99.90
74869;DHT22;63419;42.262;12.210;2022-12-04T15:18:15;12.00;99.90
74869;DHT22;63419;42.262;12.210;2022-12-04T15:23:29;11.80;99.90
74869;DHT22;63419;42.262;12.210;2022-12-04T15:26:08;11.80;99.90
74869;DHT22;63419;42.262;12.210;2022-12-04T15:31:26;11.70;99.90
74869;DHT22;63419;42.262;12.210;2022-12-04T15:34:02;11.70;99.90
74869;DHT22;63419;42.262;12.210;2022-12-04T15:36:41;11.70;99.90
74869;DHT22;63419;42.262;12.210;2022-12-04T15:39:21;11.70;99.90
74869;DHT22;63419;42.262;12.210;2022-12-04T15:42:46;11.60;99.90
74869;DHT22;63419;42.262;12.210;2022-12-04T15:52:57;11.70;99.90
74869;DHT22;63419;42.262;12.210;2022-12-04T15:55:31;11.70;99.90
74869;DHT22;63419;42.262;12.210;2022-12-04T15:58:26;11.70;99.90
74869;DHT22;63419;42.262;12.210;2022-12-04T16:06:19;11.70;99.90
74869;DHT22;63419;42.262;12.210;2022-12-04T16:08:59;11.70;99.90
74869;DHT22;63419;42.262;12.210;2022-12-04T16:11:56;11.70;99.90
74869;DHT22;63419;42.262;12.210;2022-12-04T16:14:27;11.60;99.90
74869;DHT22;63419;42.262;12.210;2022-12-04T16:16:59;11.50;99.90
74869;DHT22;63419;42.262;12.210;2022-12-04T16:19:33;11.40;99.90
74869;DHT22;63419;42.262;12.210;2022-12-04T16:22:09;11.40;99.90
74869;DHT22;63419;42.262;12.210;2022-12-04T16:24:46;11.30;99.90
74869;DHT22;63419;42.262;12.210;2022-12-04T16:27:21;11.40;99.90
74869;DHT22;63419;42.262;12.210;2022-12-04T16:29:51;11.50;99.90
74869;DHT22;63419;42.262;12.210;2022-12-04T16:32:31;11.60;99.90
74869;DHT22;63419;42.262;12.210;2022-12-04T16:35:00;11.50;99.90
74869;DHT22;63419;42.262;12.210;2022-12-04T16:37:29;11.50;99.90
74869;DHT22;63419;42.262;12.210;2022-12-04T16:39:58;11.50;99.90
74869;DHT22;63419;42.262;12.210;2022-12-04T16:42:28;11.50;99.90
74869;DHT22;63419;42.262;12.210;2022-12-04T16:44:59;11.50;99.90
74869;DHT22;63419;42.262;12.210;2022-12-04T16:47:27;11.50;99.90
74869;DHT22;63419;42.262;12.210;2022-12-04T16:49:55;11.40;99.90
74869;DHT22;63419;42.262;12.210;2022-12-04T16:52:24;11.30;99.90
74869;DHT22;63419;42.262;12.210;2022-12-04T16:54:52;11.30;99.90
74869;DHT22;63419;42.262;12.210;2022-12-04T16:57:20;11.10;99.90
74869;DHT22;63419;42.262;12.210;2022-12-04T16:59:47;11.00;99.90
74869;DHT22;63419;42.262;12.210;2022-12-04T17:02:21;11.00;99.90
74869;DHT22;63419;42.262;12.210;2022-12-04T17:04:52;10.90;99.90
74869;DHT22;63419;42.262;12.210;2022-12-04T17:07:24;11.00;99.90
74869;DHT22;63419;42.262;12.210;2022-12-04T17:09:56;10.90;99.90
74869;DHT22;63419;42.262;12.210;2022-12-04T17:12:25;11.00;99.90
74869;DHT22;63419;42.262;12.210;2022-12-04T17:14:53;10.90;99.90
74869;DHT22;63419;42.262;12.210;2022-12-04T17:17:21;10.90;99.90
74869;DHT22;63419;42.262;12.210;2022-12-04T17:19:49;10.90;99.90
74869;DHT22;63419;42.262;12.210;2022-12-04T17:22:17;10.90;99.90
74869;DHT22;63419;42.262;12.210;2022-12-04T17:24:51;10.80;99.90
74869;DHT22;63419;42.262;12.210;2022-12-04T17:27:23;10.80;99.90
74869;DHT22;63419;42.262;12.210;2022-12-04T17:29:53;10.80;99.90
74869;DHT22;63419;42.262;12.210;2022-12-04T17:32:23;10.70;99.90
74869;DHT22;63419;42.262;12.210;2022-12-04T17:34:51;10.70;99.90
74869;DHT22;63419;42.262;12.210;2022-12-04T17:37:20;10.60;99.90
74869;DHT22;63419;42.262;12.210;2022-12-04T17:39:48;10.50;99.90
74869;DHT22;63419;42.262;12.210;2022-12-04T17:42:15;10.50;99.90
74869;DHT22;63419;42.262;12.210;2022-12-04T17:44:44;10.50;99.90
74869;DHT22;63419;42.262;12.210;2022-12-04T17:47:13;10.50;99.90
74869;DHT22;63419;42.262;12.210;2022-12-04T17:49:41;10.60;99.90
74869;DHT22;63419;42.262;12.210;2022-12-04T17:52:09;10.70;99.90
74869;DHT22;63419;42.262;12.210;2022-12-04T17:54:36;10.70;99.90
74869;DHT22;63419;42.262;12.210;2022-12-04T17:57:05;10.70;99.90
74869;DHT22;63419;42.262;12.210;2022-12-04T17:59:32;10.80;99.90
74869;DHT22;63419;42.262;12.210;2022-12-04T18:01:59;11.00;99.90
74869;DHT22;63419;42.262;12.210;2022-12-04T18:04:27;11.00;99.90
74869;DHT22;63419;42.262;12.210;2022-12-04T18:06:55;11.00;99.90
74869;DHT22;63419;42.262;12.210;2022-12-04T18:09:23;11.10;99.90
74869;DHT22;63419;42.262;12.210;2022-12-04T18:11:51;11.00;99.90
74869;DHT22;63419;42.262;12.210;2022-12-04T18:14:18;11.10;99.90
74869;DHT22;63419;42.262;12.210;2022-12-04T18:16:51;11.10;99.90
74869;DHT22;63419;42.262;12.210;2022-12-04T18:19:23;11.00;99.90
74869;DHT22;63419;42.262;12.210;2022-12-04T18:21:53;11.00;99.90